Time;durP1;ratioP1;P1;durP2;ratioP2;P2;SDS_P1;SDS_P2;PMS_P1;PMS_P2;Temp;Humidity;BMP_temperature;BMP_pressure;BME280_temperature;BME280_humidity;BME280_pressure;Samples;Min_cycle;Max_cycle;Signal;HPM_P1;HPM_P2
2022/03/12 00:02:29;;;;;;;;;2.33;2.33;;;;;10.11;70.42;100442.16;5078154;28;45541;-61
2022/03/12 00:04:55;;;;;;;;;5.33;4.00;;;;;10.05;70.38;100447.66;5078769;28;45437;-59
2022/03/12 00:07:20;;;;;;;;;3.00;3.00;;;;;10.08;70.24;100444.91;5078693;28;46052;-61
2022/03/12 00:09:50;;;;;;;;;3.00;3.00;;;;;10.07;69.85;100449.28;5078201;27;45407;-62
2022/03/12 00:12:17;;;;;;;;;3.00;3.00;;;;;10.08;69.84;100458.03;5077116;28;45546;-60
2022/03/12 00:14:48;;;;;;;;;3.67;3.33;;;;;10.02;69.54;100459.13;5059822;28;45414;-62
2022/03/12 00:17:45;;;;;;;;;;;;;;;;;;;;;
2022/03/12 00:20:16;;;;;;;;;3.00;3.00;;;;;10.01;70.08;100464.41;5053534;27;72981;-60
2022/03/12 00:22:45;;;;;;;;;3.33;3.33;;;;;10.00;69.86;100457.47;5062971;28;45513;-60
2022/03/12 00:25:26;;;;;;;;;3.00;3.00;;;;;10.08;70.04;100460.69;5060111;28;45490;-62
2022/03/12 00:28:03;;;;;;;;;3.33;3.33;;;;;10.13;69.75;100461.38;5078224;28;45604;-60
2022/03/12 00:30:29;;;;;;;;;3.67;3.67;;;;;10.12;69.69;100465.75;5060792;28;45463;-61
2022/03/12 00:32:55;;;;;;;;;3.67;3.67;;;;;10.15;69.44;100470.91;5078263;28;45481;-60
2022/03/12 00:35:21;;;;;;;;;2.33;2.33;;;;;10.15;69.22;100476.19;5077290;28;45520;-59
2022/03/12 00:37:47;;;;;;;;;4.00;4.00;;;;;10.19;69.35;100476.91;5077491;28;45457;-60
2022/03/12 00:40:15;;;;;;;;;4.00;3.00;;;;;10.18;69.26;100481.31;5077593;28;45399;-61
2022/03/12 00:42:41;;;;;;;;;3.00;3.00;;;;;10.12;69.50;100475.41;5055480;28;45391;-60
2022/03/12 00:45:33;;;;;;;;;2.00;2.00;;;;;10.13;69.54;100478.00;5076685;28;45571;-62
2022/03/12 00:47:59;;;;;;;;;3.67;3.67;;;;;10.08;69.17;100479.91;5045574;28;46196;-60
2022/03/12 00:50:24;;;;;;;;;4.33;3.67;;;;;10.17;69.13;100486.63;5066857;28;45434;-61
2022/03/12 00:52:50;;;;;;;;;4.00;4.00;;;;;10.14;69.28;100497.25;5077137;28;45498;-61
2022/03/12 00:55:15;;;;;;;;;3.00;3.00;;;;;10.20;69.45;100498.78;5075327;27;45481;-60
2022/03/12 00:57:41;;;;;;;;;3.67;3.00;;;;;10.24;69.93;100501.25;5069268;28;45391;-60
2022/03/12 01:00:14;;;;;;;;;3.00;3.00;;;;;10.27;68.71;100502.94;5076768;28;45584;-61
2022/03/12 01:02:39;;;;;;;;;2.33;2.33;;;;;10.30;69.07;100516.00;5075106;28;45556;-59
2022/03/12 01:05:05;;;;;;;;;3.00;3.00;;;;;10.29;68.71;100520.41;5077053;28;45419;-62
2022/03/12 01:07:31;;;;;;;;;4.00;3.00;;;;;10.35;69.15;100514.91;5077365;28;46532;-61
2022/03/12 01:09:56;;;;;;;;;4.00;4.00;;;;;10.36;69.21;100521.03;5072929;27;45628;-59
2022/03/12 01:12:22;;;;;;;;;2.00;2.00;;;;;10.37;69.28;100525.38;5059281;28;45545;-59
2022/03/12 01:14:47;;;;;;;;;3.67;3.67;;;;;10.37;68.84;100522.75;5073888;28;45498;-61
2022/03/12 01:17:13;;;;;;;;;2.00;2.00;;;;;10.38;68.79;100525.31;5074809;28;46094;-60
2022/03/12 01:19:41;;;;;;;;;4.00;4.00;;;;;10.38;68.58;100535.81;5077065;28;45513;-62
2022/03/12 01:22:07;;;;;;;;;5.67;4.00;;;;;10.33;68.68;100534.28;5077099;28;45398;-58
2022/03/12 01:24:37;;;;;;;;;3.67;3.00;;;;;10.33;68.78;100529.88;5061103;28;45346;-59
2022/03/12 01:27:02;;;;;;;;;3.00;3.00;;;;;10.26;68.84;100536.25;5076388;28;45491;-59
2022/03/12 01:29:28;;;;;;;;;3.00;2.00;;;;;10.20;69.01;100536.44;5076699;28;45423;-60
2022/03/12 01:31:53;;;;;;;;;4.00;2.00;;;;;10.22;69.02;100534.63;5077128;28;45455;-59
2022/03/12 01:34:19;;;;;;;;;4.00;4.00;;;;;10.24;68.61;100539.84;5070610;28;45619;-57
2022/03/12 01:36:45;;;;;;;;;7.33;6.67;;;;;10.20;68.95;100530.31;5070743;28;46027;-59
2022/03/12 01:39:10;;;;;;;;;4.00;4.00;;;;;10.23;68.91;100522.34;5068371;28;46067;-59
2022/03/12 01:41:40;;;;;;;;;3.00;3.00;;;;;10.18;68.84;100530.38;5068892;28;45489;-59
2022/03/12 01:44:06;;;;;;;;;2.00;2.00;;;;;10.12;69.38;100538.47;5074799;28;45371;-59
2022/03/12 01:46:42;;;;;;;;;4.00;4.00;;;;;10.10;69.20;100529.78;5076530;28;46832;-61
2022/03/12 01:49:18;;;;;;;;;5.00;3.67;;;;;10.13;69.18;100533.19;5075983;28;45557;-59
2022/03/12 01:51:45;;;;;;;;;3.33;3.33;;;;;10.17;69.07;100533.91;5075075;28;45430;-60
2022/03/12 01:54:13;;;;;;;;;6.67;5.00;;;;;10.17;68.71;100533.91;5076881;28;45475;-60
2022/03/12 01:56:40;;;;;;;;;2.33;2.33;;;;;10.22;68.30;100539.88;5075695;27;45497;-61
2022/03/12 01:59:06;;;;;;;;;1.67;1.33;;;;;10.17;68.48;100547.91;5074713;27;45434;-62
2022/03/12 02:01:32;;;;;;;;;4.00;4.00;;;;;10.15;68.89;100552.38;5075585;28;45890;-60
2022/03/12 02:04:02;;;;;;;;;6.00;4.67;;;;;10.17;68.58;100562.81;5076722;28;45388;-59
2022/03/12 02:07:16;;;;;;;;;3.67;3.67;;;;;10.15;68.58;100557.66;5042065;28;46163;-57
2022/03/12 02:09:49;;;;;;;;;3.67;3.00;;;;;10.21;68.45;100568.81;5036929;28;45492;-57
2022/03/12 02:12:15;;;;;;;;;3.00;3.00;;;;;10.11;68.62;100565.66;5054945;28;45506;-61
2022/03/12 02:14:43;;;;;;;;;5.00;3.33;;;;;10.01;68.69;100564.25;5056285;28;45357;-58
2022/03/12 02:17:24;;;;;;;;;3.00;3.00;;;;;10.06;68.65;100572.84;5056415;28;46036;-61
2022/03/12 02:19:50;;;;;;;;;2.67;2.67;;;;;10.08;68.63;100571.03;5068947;28;45457;-58
2022/03/12 02:22:16;;;;;;;;;4.00;3.00;;;;;10.05;68.51;100569.38;5056235;28;45470;-60
2022/03/12 02:24:42;;;;;;;;;7.67;4.00;;;;;10.02;69.00;100568.59;5067963;28;45579;-59
2022/03/12 02:27:12;;;;;;;;;5.67;5.33;;;;;10.03;68.64;100559.81;5058250;28;45948;-61
2022/03/12 02:29:40;;;;;;;;;3.67;3.33;;;;;9.99;68.85;100564.28;5061731;28;45473;-61
2022/03/12 02:32:09;;;;;;;;;3.33;3.33;;;;;9.95;68.36;100563.56;5076153;28;45470;-57
2022/03/12 02:34:49;;;;;;;;;3.00;3.00;;;;;9.87;69.06;100570.81;5075487;28;45531;-58
2022/03/12 02:37:28;;;;;;;;;4.33;4.33;;;;;9.85;69.21;100553.41;5065375;28;46093;-59
2022/03/12 02:39:55;;;;;;;;;2.33;2.33;;;;;9.88;69.32;100556.78;5059529;28;45465;-60
2022/03/12 02:42:24;;;;;;;;;3.00;3.00;;;;;9.82;69.40;100559.63;5075840;28;45539;-60
2022/03/12 02:44:50;;;;;;;;;4.00;4.00;;;;;9.91;69.24;100561.97;5075347;28;45482;-59
2022/03/12 02:47:19;;;;;;;;;6.33;4.00;;;;;9.90;69.31;100554.97;5075094;28;46630;-59
2022/03/12 02:49:58;;;;;;;;;4.00;4.00;;;;;9.94;68.89;100561.84;5075954;28;45398;-61
2022/03/12 02:52:28;;;;;;;;;4.00;4.00;;;;;9.88;69.00;100562.03;5065554;28;45520;-58
2022/03/12 02:54:55;;;;;;;;;2.00;2.00;;;;;9.87;69.04;100555.06;5071515;28;45452;-60
2022/03/12 02:57:24;;;;;;;;;4.00;4.00;;;;;9.87;68.85;100555.06;5074713;28;45948;-60
2022/03/12 02:59:53;;;;;;;;;3.33;3.33;;;;;9.94;69.37;100567.09;5075407;28;45551;-61
2022/03/12 03:02:31;;;;;;;;;7.00;4.00;;;;;10.00;68.91;100566.03;5075300;28;45493;-61
2022/03/12 03:04:57;;;;;;;;;4.67;4.67;;;;;10.06;68.45;100564.97;5076190;28;45459;-61
2022/03/12 03:07:24;;;;;;;;;8.00;4.00;;;;;10.07;68.92;100566.66;5067396;28;45508;-61
2022/03/12 03:09:53;;;;;;;;;3.00;3.00;;;;;10.11;68.37;100574.41;5075344;28;45467;-62
2022/03/12 03:12:20;;;;;;;;;7.67;3.67;;;;;10.14;68.10;100562.94;5075468;28;45308;-60
2022/03/12 03:14:50;;;;;;;;;4.00;3.00;;;;;10.16;68.38;100569.88;5075836;28;45558;-61
2022/03/12 03:17:19;;;;;;;;;3.00;3.00;;;;;10.20;67.92;100572.38;5074984;28;45667;-60
2022/03/12 03:19:48;;;;;;;;;3.33;3.33;;;;;10.18;67.86;100569.78;5056376;28;45428;-59
2022/03/12 03:22:16;;;;;;;;;4.00;4.00;;;;;10.17;67.59;100574.19;5048483;28;45486;-62
2022/03/12 03:24:42;;;;;;;;;3.00;3.00;;;;;10.16;67.78;100566.38;5040843;28;45638;-62
2022/03/12 03:27:36;;;;;;;;;5.67;5.67;;;;;10.12;67.73;100572.63;5058820;28;45464;-60
2022/03/12 03:30:07;;;;;;;;;4.00;4.00;;;;;10.13;67.71;100566.50;5042855;28;45415;-60
2022/03/12 03:32:33;;;;;;;;;7.00;4.00;;;;;10.09;67.57;100572.75;5049367;28;45426;-62
2022/03/12 03:34:58;;;;;;;;;3.67;3.67;;;;;10.07;67.70;100571.94;5074373;27;45545;-60
2022/03/12 03:37:23;;;;;;;;;3.67;3.67;;;;;10.07;67.98;100571.94;5067512;28;46236;-63
2022/03/12 03:39:49;;;;;;;;;6.00;3.00;;;;;10.05;67.73;100574.63;5058255;28;45482;-61
2022/03/12 03:42:21;;;;;;;;;4.00;3.00;;;;;10.04;67.57;100577.28;5058660;28;45401;-61
2022/03/12 03:44:46;;;;;;;;;4.00;4.00;;;;;10.01;67.74;100582.66;5064801;28;45570;-61
2022/03/12 03:47:12;;;;;;;;;5.00;3.00;;;;;10.05;67.59;100582.50;5078763;28;45452;-61
2022/03/12 03:49:38;;;;;;;;;3.67;3.67;;;;;10.02;67.55;100581.72;5078266;28;45402;-60
2022/03/12 03:52:07;;;;;;;;;4.00;4.00;;;;;9.99;67.32;100590.56;5044006;28;45483;-60
2022/03/12 03:54:32;;;;;;;;;3.00;3.00;;;;;9.94;67.61;100588.13;5068414;28;45459;-63
2022/03/12 03:56:58;;;;;;;;;5.33;3.33;;;;;9.92;67.23;100589.06;5071221;28;45615;-61
2022/03/12 03:59:23;;;;;;;;;6.00;4.00;;;;;9.86;67.29;100584.88;5061327;28;54848;-61
2022/03/12 04:01:49;;;;;;;;;4.00;2.67;;;;;9.85;67.45;100591.03;5054248;28;45679;-63
2022/03/12 04:04:14;;;;;;;;;2.00;2.00;;;;;9.84;67.53;100591.09;5057447;28;45352;-61
2022/03/12 04:06:40;;;;;;;;;2.33;2.33;;;;;9.81;67.45;100591.19;5058073;28;45356;-62
2022/03/12 04:09:07;;;;;;;;;3.00;3.00;;;;;9.80;67.14;100586.84;5056239;28;45561;-62
2022/03/12 04:11:34;;;;;;;;;4.00;4.00;;;;;9.81;67.43;100586.81;5058269;28;45484;-59
2022/03/12 04:13:59;;;;;;;;;3.00;3.00;;;;;9.78;67.30;100586.91;5057554;28;45437;-61
2022/03/12 04:16:25;;;;;;;;;3.00;3.00;;;;;9.78;67.52;100594.78;5056130;28;45598;-62
2022/03/12 04:18:51;;;;;;;;;3.67;3.67;;;;;9.70;67.86;100589.78;5056828;28;45471;-59
2022/03/12 04:21:20;;;;;;;;;3.00;3.00;;;;;9.65;67.69;100588.19;5058209;28;45431;-61
2022/03/12 04:23:46;;;;;;;;;2.33;2.33;;;;;9.72;67.77;100594.94;5057437;28;45553;-60
2022/03/12 04:26:13;;;;;;;;;3.00;3.00;;;;;9.71;67.67;100596.72;5056203;28;46335;-63
2022/03/12 04:28:39;;;;;;;;;3.00;3.00;;;;;9.73;67.52;100596.69;5058171;28;45434;-62
2022/03/12 04:31:07;;;;;;;;;4.67;3.00;;;;;9.73;67.19;100601.94;5058277;28;45422;-62
2022/03/12 04:33:33;;;;;;;;;4.00;2.00;;;;;9.71;67.41;100601.97;5058143;28;45375;-60
2022/03/12 04:36:01;;;;;;;;;4.75;4.00;;;;;9.71;67.52;100598.50;5056865;28;45182;-61
2022/03/12 04:38:27;;;;;;;;;2.75;2.75;;;;;9.71;67.22;100596.72;5058116;28;45384;-63
2022/03/12 04:40:55;;;;;;;;;5.25;4.00;;;;;9.72;67.30;100594.94;5063072;28;45412;-61
2022/03/12 04:43:21;;;;;;;;;2.67;2.67;;;;;9.63;67.51;100601.38;5054555;28;45466;-62
2022/03/12 04:45:49;;;;;;;;;2.67;2.00;;;;;9.56;67.74;100606.84;5053191;28;45419;-61
2022/03/12 04:48:17;;;;;;;;;2.00;2.00;;;;;9.54;67.97;100606.03;5057583;28;45490;-62
2022/03/12 04:50:43;;;;;;;;;2.67;2.67;;;;;9.55;67.47;100598.13;5051192;28;45448;-61
2022/03/12 04:53:09;;;;;;;;;4.00;4.00;;;;;9.56;67.78;100606.84;5046886;28;45590;-63
2022/03/12 04:55:36;;;;;;;;;1.33;1.33;;;;;9.53;67.82;100599.94;5056885;28;45508;-61
2022/03/12 04:58:04;;;;;;;;;2.00;2.00;;;;;9.60;67.56;100608.50;5056526;28;45494;-61
2022/03/12 05:00:31;;;;;;;;;3.00;3.00;;;;;9.63;67.22;100614.50;5057583;28;45385;-63
2022/03/12 05:03:12;;;;;;;;;3.25;3.25;;;;;9.56;67.10;100620.84;5070433;28;45532;-62
2022/03/12 05:05:40;;;;;;;;;2.00;2.00;;;;;9.51;67.21;100633.28;5077180;28;46403;-61
2022/03/12 05:08:10;;;;;;;;;2.50;2.00;;;;;9.51;67.50;100628.88;5077726;27;45430;-61
2022/03/12 05:10:36;;;;;;;;;3.67;3.00;;;;;9.58;67.49;100629.53;5077020;28;45386;-59
2022/03/12 05:13:02;;;;;;;;;3.00;3.00;;;;;9.57;67.63;100621.72;5060208;28;45608;-61
2022/03/12 05:15:37;;;;;;;;;2.00;2.00;;;;;9.60;67.14;100634.75;5072596;28;46065;-59
2022/03/12 05:18:08;;;;;;;;;3.00;3.00;;;;;9.66;67.25;100639.81;5047669;28;45366;-61
2022/03/12 05:20:36;;;;;;;;;4.50;2.25;;;;;9.64;67.31;100636.34;5077854;28;45359;-59
2022/03/12 05:23:05;;;;;;;;;3.00;3.00;;;;;9.63;67.28;100630.25;5077497;28;45482;-62
2022/03/12 05:25:31;;;;;;;;;2.67;2.33;;;;;9.67;66.99;100628.38;5077418;28;45406;-62
2022/03/12 05:27:57;;;;;;;;;5.00;3.50;;;;;9.64;67.19;100637.22;5057995;28;45865;-59
2022/03/12 05:30:22;;;;;;;;;6.00;4.67;;;;;9.56;67.55;100640.97;5075390;28;45462;-61
2022/03/12 05:32:49;;;;;;;;;3.00;3.00;;;;;9.52;67.13;100641.09;5073821;28;45643;-60
2022/03/12 05:35:17;;;;;;;;;2.00;2.00;;;;;9.47;67.75;100636.88;5059104;28;45552;-61
2022/03/12 05:37:45;;;;;;;;;2.00;2.00;;;;;9.43;67.58;100640.50;5077161;28;45529;-58
2022/03/12 05:40:18;;;;;;;;;4.00;3.00;;;;;9.47;67.58;100632.47;5058670;28;45480;-61
2022/03/12 05:42:44;;;;;;;;;3.25;3.25;;;;;9.43;67.34;100630.88;5077223;28;45332;-59
2022/03/12 05:45:11;;;;;;;;;3.00;3.00;;;;;9.46;67.72;100640.41;5076132;28;46141;-61
2022/03/12 05:47:40;;;;;;;;;7.00;3.75;;;;;9.48;67.15;100638.59;5076081;28;45536;-60
2022/03/12 05:50:09;;;;;;;;;4.50;4.50;;;;;9.51;67.21;100643.78;5068539;28;45457;-59
2022/03/12 05:52:39;;;;;;;;;3.67;3.00;;;;;9.44;67.14;100645.69;5077228;28;45379;-60
2022/03/12 05:55:06;;;;;;;;;4.00;4.00;;;;;9.50;67.28;100657.78;5067934;28;45438;-62
2022/03/12 05:57:32;;;;;;;;;3.33;2.00;;;;;9.51;67.10;100657.75;5077146;28;45425;-62
2022/03/12 06:00:01;;;;;;;;;5.25;3.50;;;;;9.51;67.16;100649.88;5075391;28;45431;-61
2022/03/12 06:02:28;;;;;;;;;4.00;3.00;;;;;9.51;67.08;100654.28;5061095;28;45677;-61
2022/03/12 06:04:55;;;;;;;;;6.50;4.00;;;;;9.49;67.20;100650.81;5076278;28;45470;-60
2022/03/12 06:07:25;;;;;;;;;5.75;5.75;;;;;9.45;66.92;100657.91;5072666;28;45392;-62
2022/03/12 06:09:51;;;;;;;;;6.00;6.00;;;;;9.45;66.96;100664.94;5069434;28;45481;-61
2022/03/12 06:12:17;;;;;;;;;4.00;4.00;;;;;9.39;67.10;100668.59;5076933;28;45493;-59
2022/03/12 06:14:43;;;;;;;;;4.00;3.00;;;;;9.37;67.37;100665.16;5072700;28;45572;-61
2022/03/12 06:17:08;;;;;;;;;5.50;4.50;;;;;9.36;67.42;100671.31;5076786;28;45567;-60
2022/03/12 06:19:34;;;;;;;;;3.50;3.25;;;;;9.39;67.13;100676.47;5076665;28;45522;-60
2022/03/12 06:21:59;;;;;;;;;2.67;2.67;;;;;9.40;67.26;100672.09;5076504;28;45768;-62
2022/03/12 06:24:26;;;;;;;;;5.75;5.75;;;;;9.42;67.19;100676.38;5070156;28;45404;-61
2022/03/12 06:26:51;;;;;;;;;6.25;6.25;;;;;9.40;67.17;100680.84;5056653;28;45443;-59
2022/03/12 06:29:17;;;;;;;;;4.00;4.00;;;;;9.37;67.51;100694.03;5038289;28;45399;-61
2022/03/12 06:31:43;;;;;;;;;5.75;3.75;;;;;9.36;67.32;100694.94;5073663;28;45397;-60
2022/03/12 06:34:10;;;;;;;;;5.25;5.25;;;;;9.33;67.15;100692.41;5074703;28;45449;-60
2022/03/12 06:36:37;;;;;;;;;3.75;3.75;;;;;9.32;66.72;100697.69;5075895;28;45474;-62
2022/03/12 06:39:06;;;;;;;;;7.00;3.00;;;;;9.32;67.06;100695.06;5076509;28;45438;-60
2022/03/12 06:41:36;;;;;;;;;6.00;6.00;;;;;9.33;67.09;100696.81;5076028;28;45589;-58
2022/03/12 06:44:03;;;;;;;;;2.00;2.00;;;;;9.32;66.85;100697.69;5058089;28;45444;-60
2022/03/12 06:46:29;;;;;;;;;3.00;3.00;;;;;9.30;67.27;100708.25;5069089;28;45467;-59
2022/03/12 06:48:54;;;;;;;;;5.75;5.75;;;;;9.23;67.20;100715.41;5075522;28;45383;-59
2022/03/12 06:51:20;;;;;;;;;4.75;4.75;;;;;9.20;67.28;100720.75;5067287;28;45556;-60
2022/03/12 06:53:46;;;;;;;;;4.00;3.00;;;;;9.19;67.44;100728.69;5058505;28;45485;-56
2022/03/12 06:56:27;;;;;;;;;5.50;5.50;;;;;9.15;67.25;100725.28;5075219;28;45581;-72
2022/03/12 06:58:52;;;;;;;;;4.75;2.25;;;;;9.14;67.49;100735.81;5051292;28;45465;-71
2022/03/12 07:01:18;;;;;;;;;6.00;6.00;;;;;9.12;67.56;100740.25;5056261;28;45402;-73
2022/03/12 07:03:44;;;;;;;;;7.50;6.00;;;;;9.07;67.78;100737.75;5067966;28;45446;-69
2022/03/12 07:06:09;;;;;;;;;6.75;5.50;;;;;9.13;67.54;100749.81;5075914;28;45493;-69
2022/03/12 07:08:36;;;;;;;;;4.00;3.50;;;;;9.11;67.52;100738.50;5074012;28;45423;-70
2022/03/12 07:11:02;;;;;;;;;4.50;4.00;;;;;9.15;67.60;100751.50;5070051;28;45589;-72
2022/03/12 07:13:28;;;;;;;;;7.00;6.00;;;;;9.05;68.06;100761.41;5076086;28;45400;-72
2022/03/12 07:16:03;;;;;;;;;6.00;6.00;;;;;9.07;68.19;100761.34;5076660;28;45438;-71
2022/03/12 07:18:29;;;;;;;;;6.25;6.25;;;;;9.04;68.01;100762.28;5056803;28;45723;-69
2022/03/12 07:20:55;;;;;;;;;2.75;2.75;;;;;9.12;68.22;100753.38;5075685;28;45569;-67
2022/03/12 07:23:21;;;;;;;;;7.25;6.75;;;;;9.16;67.80;100750.63;5069556;27;45476;-71
2022/03/12 07:25:46;;;;;;;;;3.50;3.50;;;;;9.26;67.42;100757.31;5078129;28;45514;-71
2022/03/12 07:28:17;;;;;;;;;4.00;4.00;;;;;9.32;67.69;100761.53;5077468;28;45642;-70
2022/03/12 07:30:42;;;;;;;;;6.75;6.75;;;;;9.29;67.49;100756.38;5058587;28;45444;-72
2022/03/12 07:33:09;;;;;;;;;4.50;4.50;;;;;9.26;67.59;100759.09;5055788;28;45505;-70
2022/03/12 07:35:35;;;;;;;;;3.00;2.00;;;;;9.22;67.82;100760.94;5068221;28;45428;-71
2022/03/12 07:38:00;;;;;;;;;4.00;4.00;;;;;9.26;67.68;100772.22;5081018;27;45424;-70
2022/03/12 07:40:26;;;;;;;;;2.00;2.00;;;;;9.29;67.94;100762.50;5062400;28;46947;-69
2022/03/12 07:42:51;;;;;;;;;2.50;2.50;;;;;9.40;67.25;100766.59;5075751;28;45466;-69
2022/03/12 07:45:17;;;;;;;;;7.25;6.00;;;;;9.41;67.22;100761.31;5075206;28;45549;-69
2022/03/12 07:47:43;;;;;;;;;6.00;4.00;;;;;9.50;67.21;100760.19;5069133;28;45530;-69
2022/03/12 07:50:09;;;;;;;;;6.25;6.25;;;;;9.56;66.81;100765.25;5076392;28;45360;-69
2022/03/12 07:52:35;;;;;;;;;4.00;4.00;;;;;9.60;66.78;100766.03;5075704;28;46926;-70
2022/03/12 07:55:02;;;;;;;;;7.00;7.00;;;;;9.47;67.21;100761.13;5059530;28;45568;-65
2022/03/12 07:57:29;;;;;;;;;31.50;28.25;;;;;9.52;66.96;100769.72;5073690;28;45367;-67
2022/03/12 07:59:55;;;;;;;;;71.25;58.50;;;;;9.57;67.16;100766.13;5075092;28;45546;-65
2022/03/12 08:02:21;;;;;;;;;4.50;4.50;;;;;9.63;67.16;100785.19;5075551;27;45574;-66
2022/03/12 08:04:47;;;;;;;;;4.00;4.00;;;;;9.56;66.62;100781.00;5074986;27;45560;-64
2022/03/12 08:07:12;;;;;;;;;7.75;7.75;;;;;10.10;72.36;100787.31;5055426;28;45728;-59
2022/03/12 08:09:44;;;;;;;;;4.67;4.67;;;;;10.94;67.82;100803.06;5072471;27;45510;-60
2022/03/12 08:12:17;;;;;;;;;7.00;7.00;;;;;11.66;64.84;100803.19;5093891;27;46171;-64
2022/03/12 08:14:49;;;;;;;;;4.00;4.00;;;;;12.24;62.42;100808.06;5075838;28;45386;-63
2022/03/12 08:20:47;;;;;;;;;9.33;6.00;;;;;13.21;58.97;100812.88;4995899;28;45511;-58
2022/03/12 08:24:01;;;;;;;;;4.67;3.00;;;;;13.54;58.04;100814.16;4960535;28;45576;-52
2022/03/12 08:27:00;;;;;;;;;;;;;;;;;;;;;
2022/03/12 08:29:19;;;;;;;;;21.67;15.67;;;;;14.01;56.70;100811.16;5061793;28;45472;-58
2022/03/12 08:35:08;;;;;;;;;6.33;5.00;;;;;14.42;55.23;100819.78;5078784;28;45553;-55
2022/03/12 08:37:34;;;;;;;;;5.33;5.00;;;;;14.54;53.80;100816.59;5061269;28;45434;-56
2022/03/12 08:40:06;;;;;;;;;6.33;6.00;;;;;14.62;54.60;100829.47;5086740;27;45194;-59
2022/03/12 08:42:33;;;;;;;;;5.67;4.00;;;;;14.69;54.27;100822.91;5090405;27;45580;-59
2022/03/12 08:45:02;;;;;;;;;5.00;5.00;;;;;14.75;54.12;100822.63;5092972;27;46397;-57
2022/03/12 08:47:27;;;;;;;;;7.00;5.00;;;;;14.80;53.77;100817.97;5077731;27;45641;-55
2022/03/12 08:49:53;;;;;;;;;5.00;4.33;;;;;14.86;53.74;100815.97;5061293;27;45515;-57
2022/03/12 08:52:28;;;;;;;;;6.00;5.00;;;;;14.85;53.71;100814.22;5064183;28;45430;-56
2022/03/12 08:55:06;;;;;;;;;5.00;4.67;;;;;14.87;53.97;100813.22;5076832;28;45516;-58
2022/03/12 09:00:57;;;;;;;;;6.00;5.00;;;;;14.97;54.59;100817.13;5074683;28;45418;-57
2022/03/12 09:03:56;;;;;;;;;5.00;5.00;;;;;15.10;53.30;100812.06;5038057;28;45390;-58
2022/03/12 09:06:24;;;;;;;;;4.00;4.00;;;;;15.22;53.44;100822.03;5056663;28;45433;-57
2022/03/12 09:09:17;;;;;;;;;5.00;4.00;;;;;15.32;52.98;100814.47;5054818;28;45499;-57
2022/03/12 09:11:40;;;;;;;;;3.00;3.00;;;;;15.41;53.40;100808.69;5053080;28;45439;-58
2022/03/12 09:14:06;;;;;;;;;3.33;3.33;;;;;15.51;53.89;100811.72;5056258;28;45574;-58
2022/03/12 09:16:32;;;;;;;;;4.33;4.33;;;;;15.59;52.90;100824.59;5051899;28;45435;-60
2022/03/12 09:18:58;;;;;;;;;3.33;3.33;;;;;15.64;53.63;100814.59;5056004;28;45783;-69
2022/03/12 09:21:24;;;;;;;;;3.00;3.00;;;;;15.67;53.22;100819.72;5056377;28;45430;-68
2022/03/12 09:23:49;;;;;;;;;4.00;4.00;;;;;15.68;52.70;100814.34;5056932;28;45550;-56
2022/03/12 09:26:17;;;;;;;;;5.33;5.00;;;;;15.75;52.61;100814.91;5054871;28;45417;-58
2022/03/12 09:28:48;;;;;;;;;4.33;4.33;;;;;15.81;53.23;100811.06;5055904;28;45546;-59
2022/03/12 09:31:14;;;;;;;;;4.00;4.00;;;;;15.81;52.69;100811.91;5056404;28;45538;-62
2022/03/12 09:33:41;;;;;;;;;5.00;5.00;;;;;15.82;52.98;100815.41;5056971;28;45530;-65
2022/03/12 09:36:09;;;;;;;;;4.00;3.67;;;;;15.82;53.08;100812.75;5056331;28;46194;-54
2022/03/12 09:38:35;;;;;;;;;2.67;2.67;;;;;15.82;52.85;100815.41;5038556;28;45424;-56
2022/03/12 09:41:00;;;;;;;;;3.00;3.00;;;;;15.79;53.53;100811.13;5045356;28;45324;-53
2022/03/12 09:43:25;;;;;;;;;4.00;4.00;;;;;15.81;52.76;100816.38;5036526;28;45375;-53
2022/03/12 09:45:51;;;;;;;;;4.00;4.00;;;;;15.82;51.89;100808.31;5021475;28;47661;-53
2022/03/12 09:48:18;;;;;;;;;4.00;4.00;;;;;15.80;52.36;100782.84;5055155;28;45420;-50
2022/03/12 09:50:43;;;;;;;;;3.00;2.33;;;;;15.85;53.28;100783.41;5033988;28;45602;-49
2022/03/12 09:53:09;;;;;;;;;5.67;3.00;;;;;15.88;52.63;100777.97;5045411;28;45440;-48
2022/03/12 09:55:34;;;;;;;;;3.00;3.00;;;;;15.96;52.98;100783.72;5051919;28;45984;-53
2022/03/12 09:57:59;;;;;;;;;2.33;2.33;;;;;16.02;53.37;100801.09;5035998;28;45538;-51
2022/03/12 10:00:26;;;;;;;;;4.00;4.00;;;;;16.04;52.89;100802.72;5045213;28;45569;-51
2022/03/12 10:02:52;;;;;;;;;3.67;3.67;;;;;16.07;52.06;100810.50;5065368;28;45599;-51
2022/03/12 10:05:17;;;;;;;;;3.33;3.33;;;;;16.11;51.96;100808.53;5076007;28;46266;-51
2022/03/12 10:07:43;;;;;;;;;3.00;2.00;;;;;16.15;53.85;100809.22;5075033;28;45508;-52
2022/03/12 10:10:20;;;;;;;;;3.00;3.00;;;;;16.19;53.52;100794.84;5080755;27;45462;-54
2022/03/12 10:12:47;;;;;;;;;2.00;2.00;;;;;16.22;54.39;100794.66;5075376;28;45481;-48
2022/03/12 10:15:14;;;;;;;;;2.33;2.33;;;;;16.26;54.51;100793.56;5074983;28;45569;-53
2022/03/12 10:17:41;;;;;;;;;3.67;3.67;;;;;16.30;54.18;100789.78;5073322;28;45457;-51
2022/03/12 10:20:08;;;;;;;;;5.00;4.00;;;;;16.35;54.59;100785.94;5056142;28;45520;-53
2022/03/12 10:22:34;;;;;;;;;3.33;3.00;;;;;16.38;54.40;100776.94;5048137;28;45629;-49
2022/03/12 10:24:59;;;;;;;;;5.00;4.00;;;;;16.42;53.64;100777.66;5069940;28;45473;-52
2022/03/12 10:27:25;;;;;;;;;5.33;4.00;;;;;16.44;54.07;100784.56;5074303;28;45390;-52
2022/03/12 10:29:50;;;;;;;;;3.00;3.00;;;;;16.48;54.07;100782.59;5074884;28;45410;-53
2022/03/12 10:32:20;;;;;;;;;5.00;3.33;;;;;16.51;53.62;100785.91;5070455;28;45423;-49
2022/03/12 10:34:52;;;;;;;;;3.00;3.00;;;;;16.55;54.48;100787.47;5051573;28;45583;-52
2022/03/12 10:37:20;;;;;;;;;3.00;3.00;;;;;16.59;54.12;100784.63;5073028;28;45553;-52
2022/03/12 10:39:46;;;;;;;;;4.00;4.00;;;;;16.62;54.08;100792.41;5066046;28;45496;-48
2022/03/12 10:42:12;;;;;;;;;3.00;2.00;;;;;16.65;53.53;100786.94;5069037;28;45514;-50
2022/03/12 10:44:40;;;;;;;;;0.67;0.00;;;;;16.67;54.09;100790.34;5074445;28;46458;-52
2022/03/12 10:47:25;;;;;;;;;2.67;2.00;;;;;16.69;53.36;100776.06;5071730;27;45426;-53
2022/03/12 10:50:00;;;;;;;;;5.00;4.00;;;;;16.72;53.44;100767.91;5070100;28;45360;-51
2022/03/12 10:52:28;;;;;;;;;3.00;3.00;;;;;16.74;53.27;100773.97;5068705;28;45502;-56
2022/03/12 10:54:58;;;;;;;;;5.00;4.00;;;;;16.75;53.78;100773.03;5062596;27;46025;-50
2022/03/12 10:57:23;;;;;;;;;3.67;2.67;;;;;16.78;53.51;100772.03;5045326;28;45427;-49
2022/03/12 10:59:54;;;;;;;;;5.00;4.67;;;;;16.81;54.71;100765.69;5073111;28;45422;-53
2022/03/12 11:02:19;;;;;;;;;3.00;3.00;;;;;16.85;54.29;100767.22;5070228;28;45531;-54
2022/03/12 11:04:44;;;;;;;;;5.00;5.00;;;;;16.86;55.14;100771.59;5082195;27;46488;-49
2022/03/12 11:07:29;;;;;;;;;3.00;3.00;;;;;16.91;56.06;100761.53;5096010;27;48967;-52
2022/03/12 11:09:55;;;;;;;;;4.00;4.00;;;;;16.93;57.66;100760.50;5096264;27;45456;-52
2022/03/12 11:12:35;;;;;;;;;7.00;5.00;;;;;16.96;58.21;100759.47;5080734;27;45483;-51
2022/03/12 11:15:05;;;;;;;;;7.00;6.00;;;;;16.98;57.96;100753.13;5075277;28;45409;-53
2022/03/12 11:17:47;;;;;;;;;5.33;3.33;;;;;17.00;57.81;100753.88;5086043;27;45457;-52
2022/03/12 11:20:22;;;;;;;;;3.00;3.00;;;;;17.02;57.89;100748.47;5096215;27;45414;-51
2022/03/12 11:22:50;;;;;;;;;4.33;3.00;;;;;17.04;57.39;100745.72;5077566;27;45637;-53
2022/03/12 11:25:22;;;;;;;;;3.67;3.67;;;;;17.03;57.48;100741.34;5096165;27;45525;-50
2022/03/12 11:27:51;;;;;;;;;2.67;2.67;;;;;17.08;56.92;100739.28;5077475;27;45450;-53
2022/03/12 11:30:21;;;;;;;;;3.33;3.33;;;;;17.07;56.50;100725.13;5075758;28;45445;-48
2022/03/12 11:33:03;;;;;;;;;4.00;4.00;;;;;17.05;54.36;100752.75;5075399;28;45450;-52
2022/03/12 11:35:35;;;;;;;;;5.00;5.00;;;;;16.99;53.17;100757.47;5075048;28;46386;-50
2022/03/12 11:38:20;;;;;;;;;4.00;4.00;;;;;16.90;52.09;100754.50;5074922;28;45435;-49
2022/03/12 11:41:02;;;;;;;;;4.67;3.33;;;;;16.81;52.75;100753.25;5056789;28;45404;-56
2022/03/12 11:43:30;;;;;;;;;4.67;3.00;;;;;16.78;52.40;100756.09;5075188;28;45378;-54
2022/03/12 11:45:59;;;;;;;;;4.00;4.00;;;;;16.76;52.50;100747.31;5078062;28;46141;-56
2022/03/12 11:48:28;;;;;;;;;3.33;3.33;;;;;16.74;52.92;100749.22;5078524;27;45395;-56
2022/03/12 11:50:53;;;;;;;;;5.00;5.00;;;;;16.71;52.14;100750.25;5074617;28;45600;-49